Flugplatz Baumholder (ETEK)

Hier findest Du alle Informationen zum Flugplatz Baumholder (ETEK).

Informationen für Piloten zum Flugplatz Baumholder

Hier findest Du alle relevanten Informationen, die Du als Pilot benötigst, um Baumholder anzufliegen.

Flugplatz: Baumholder ICAO-Code: ETEK
Frequenz Turm: 122,100 Mhz GAFOR Gebiet: 44
Frequenz Ground: 122,100 Mhz Mogas: nein
Platzrunde: - Landegebühr: -
Platzhöhe: - Sunrise: 07:08 Uhr UTC
Pisten: 07/25 - 575 m x , ASPH Sunset: 16:18 Uhr UTC

Flugwetter am Flugplatz Baumholder

Die METAR Information stammen aus EDFH (33.25 km entfernt).

METAR Code:
2020/01/23 23:20
EDFH 232320Z 15011KT 0200 R21/0400N FZFG VV/// M02/M03 Q1024

Flugschulen am Flugplatz Baumholder

Am Flugplatz Baumholder gibt es leider keine Flugschule.

Benachbarte Flugplätze und Flugschulen

Es gibt 21 weitere Flugplätze in einem Umkreis von 50 km um den Flugplatz Baumholder.

Jetzt anmelden

Passwort vergessen

Umfrage Archiv

Lasst Ihr Euch bei Überlandflügen von FIS begleiten?

Ja, immer!
43.1 %
Ja, unregelmäßig!
29.3 %
Ja, aber nur selten!
17.4 %
Nein, nie!
10.2 %
Stimmen: 167 | Diskussion
Anzeige: Roland Aircraft
Statistik Alle Mitglieder

Aktuell sind 38 Besucher online, davon 1 Mitglied und 37 Gäste.


Mitglieder online:
edhs 

Anzeige: VFR Sprechfunk Simulator


Anzeige: Pocket FMS